createdAt,value
2022-12-15T00:00:23.325Z,22.66
2022-12-15T00:01:43.587Z,22.67
2022-12-15T00:03:03.991Z,22.68
2022-12-15T00:04:24.726Z,22.67
2022-12-15T00:05:49.933Z,22.66
2022-12-15T00:07:10.431Z,22.67
2022-12-15T00:08:30.791Z,22.66
2022-12-15T00:09:50.635Z,22.69
2022-12-15T00:11:11.067Z,22.69
2022-12-15T00:12:30.882Z,22.69
2022-12-15T00:13:50.685Z,22.69
2022-12-15T00:15:10.966Z,22.70
2022-12-15T00:16:30.845Z,22.68
2022-12-15T00:17:50.966Z,22.69
2022-12-15T00:19:11.414Z,22.68
2022-12-15T00:20:31.793Z,22.67
2022-12-15T00:21:52.225Z,22.66
2022-12-15T00:23:12.237Z,22.65
2022-12-15T00:24:32.054Z,22.66
2022-12-15T00:25:52.366Z,22.66
2022-12-15T00:27:12.669Z,22.66
2022-12-15T00:28:32.982Z,22.68
2022-12-15T00:29:52.967Z,22.68
2022-12-15T00:31:13.227Z,22.68
2022-12-15T00:32:33.353Z,22.67
2022-12-15T00:33:53.696Z,22.67
2022-12-15T00:35:13.468Z,22.54
2022-12-15T00:36:33.913Z,22.43
2022-12-15T00:37:54.019Z,22.33
2022-12-15T00:39:00.521Z,22.21
2022-12-15T00:40:06.926Z,22.16
2022-12-15T00:41:09.047Z,22.06
2022-12-15T00:42:10.968Z,21.98
2022-12-15T00:43:12.500Z,21.96
2022-12-15T00:44:18.969Z,21.91
2022-12-15T00:45:42.069Z,21.88
2022-12-15T00:46:55.565Z,21.85
2022-12-15T00:47:57.273Z,21.79
2022-12-15T00:48:58.972Z,21.73
2022-12-15T00:50:19.089Z,21.69
2022-12-15T00:51:21.089Z,21.61
2022-12-15T00:52:41.102Z,21.59
2022-12-15T00:54:01.380Z,21.58
2022-12-15T00:55:23.307Z,21.57
2022-12-15T00:58:03.775Z,21.51
2022-12-15T00:59:24.204Z,21.46
2022-12-15T01:00:44.523Z,21.46
2022-12-15T01:02:04.929Z,21.41
2022-12-15T01:03:35.269Z,21.33
2022-12-15T01:04:55.377Z,21.35
2022-12-15T01:06:15.211Z,21.31
2022-12-15T01:07:35.218Z,21.29
2022-12-15T01:08:55.573Z,21.26
2022-12-15T01:10:15.745Z,21.23
2022-12-15T01:11:35.716Z,21.20
2022-12-15T01:12:55.766Z,21.18
2022-12-15T01:14:16.075Z,21.17
2022-12-15T01:15:36.957Z,21.14
2022-12-15T01:16:57.351Z,21.12
2022-12-15T01:18:17.665Z,21.12
2022-12-15T01:19:37.623Z,21.14
2022-12-15T01:20:39.576Z,21.10
2022-12-15T01:21:41.186Z,21.10
2022-12-15T01:22:43.242Z,21.07
2022-12-15T01:23:44.850Z,21.07
2022-12-15T01:24:46.441Z,21.08
2022-12-15T01:25:51.453Z,21.01
2022-12-15T01:26:53.079Z,21.04
2022-12-15T01:27:56.052Z,21.04
2022-12-15T01:28:57.637Z,21.00
2022-12-15T01:29:59.548Z,21.00
2022-12-15T01:31:01.216Z,20.97
2022-12-15T01:32:02.793Z,20.96
2022-12-15T01:33:04.384Z,20.96
2022-12-15T01:34:05.960Z,20.95
2022-12-15T01:35:08.420Z,20.92
2022-12-15T01:36:11.017Z,20.92
2022-12-15T01:37:12.665Z,20.91
2022-12-15T01:38:14.280Z,20.90
2022-12-15T01:39:16.180Z,20.90
2022-12-15T01:40:38.443Z,20.91
2022-12-15T01:41:40.143Z,20.87
2022-12-15T01:42:41.707Z,20.86
2022-12-15T01:43:43.301Z,20.87
2022-12-15T01:44:49.721Z,20.82
2022-12-15T01:45:51.245Z,20.85
2022-12-15T01:46:56.395Z,20.82
2022-12-15T01:48:11.517Z,20.74
2022-12-15T01:49:20.887Z,20.75
2022-12-15T01:50:23.680Z,20.77
2022-12-15T01:51:32.452Z,20.74
2022-12-15T01:52:34.113Z,20.79
2022-12-15T01:53:42.725Z,20.71
2022-12-15T01:54:52.214Z,20.74
2022-12-15T01:55:54.726Z,20.76
2022-12-15T01:57:04.814Z,20.71
2022-12-15T01:58:10.064Z,20.70
2022-12-15T01:59:16.692Z,20.68
2022-12-15T02:00:18.396Z,20.71
2022-12-15T02:01:20.175Z,20.70
2022-12-15T02:02:26.828Z,20.66
2022-12-15T02:03:30.422Z,20.66
2022-12-15T02:04:33.734Z,20.68
2022-12-15T02:05:35.994Z,20.66
2022-12-15T02:06:38.023Z,20.67
2022-12-15T02:07:39.637Z,20.67
2022-12-15T02:08:44.983Z,20.66
2022-12-15T02:09:49.720Z,20.66
2022-12-15T02:11:17.498Z,20.60
2022-12-15T02:12:37.011Z,20.65
2022-12-15T02:14:01.914Z,20.57
2022-12-15T02:15:11.404Z,20.60
2022-12-15T02:16:31.988Z,20.56
2022-12-15T02:17:59.988Z,20.57
2022-12-15T02:19:22.753Z,20.52
2022-12-15T02:20:27.296Z,20.68
2022-12-15T02:22:01.131Z,20.94
2022-12-15T02:23:34.399Z,21.14
2022-12-15T02:24:54.984Z,21.36
2022-12-15T02:25:56.500Z,21.50
2022-12-15T02:27:19.578Z,21.52
2022-12-15T02:28:47.026Z,21.61
2022-12-15T02:30:10.160Z,21.67
2022-12-15T02:31:42.007Z,21.73
2022-12-15T02:33:06.662Z,21.81
2022-12-15T02:34:23.622Z,21.88
2022-12-15T02:35:34.859Z,21.92
2022-12-15T02:36:42.893Z,21.97
2022-12-15T02:37:45.517Z,21.96
2022-12-15T02:38:51.495Z,21.99
2022-12-15T02:39:53.092Z,22.00
2022-12-15T02:40:59.658Z,22.00
2022-12-15T02:42:01.312Z,22.03
2022-12-15T02:43:06.169Z,22.04
2022-12-15T02:44:21.184Z,22.02
2022-12-15T02:45:54.892Z,22.07
2022-12-15T02:47:21.272Z,22.07
2022-12-15T02:48:41.207Z,22.10
2022-12-15T02:50:24.655Z,22.12
2022-12-15T02:51:39.485Z,22.15
2022-12-15T02:53:09.360Z,22.15
2022-12-15T02:54:48.094Z,22.13
2022-12-15T02:56:06.255Z,22.13
2022-12-15T02:57:16.579Z,22.15
2022-12-15T02:58:36.583Z,22.16
2022-12-15T02:59:45.527Z,22.16
2022-12-15T03:00:52.768Z,22.15
2022-12-15T03:02:01.011Z,22.17
2022-12-15T03:03:03.007Z,22.20
2022-12-15T03:04:08.281Z,22.16
2022-12-15T03:05:12.091Z,22.17
2022-12-15T03:06:14.316Z,22.18
2022-12-15T03:07:15.955Z,22.19
2022-12-15T03:08:17.494Z,22.20
2022-12-15T03:09:19.057Z,22.20
2022-12-15T03:10:23.654Z,22.18
2022-12-15T03:11:25.420Z,22.16
2022-12-15T03:12:27.727Z,22.17
2022-12-15T03:13:29.763Z,22.18
2022-12-15T03:14:31.667Z,22.18
2022-12-15T03:15:35.502Z,22.20
2022-12-15T03:16:37.450Z,22.20
2022-12-15T03:17:39.301Z,22.23
2022-12-15T03:18:40.844Z,22.24
2022-12-15T03:19:42.627Z,22.24
2022-12-15T03:20:44.215Z,22.24
2022-12-15T03:21:45.902Z,22.23
2022-12-15T03:22:47.513Z,22.25
2022-12-15T03:23:49.066Z,22.25
2022-12-15T03:24:50.675Z,22.25
2022-12-15T03:25:52.355Z,22.25
2022-12-15T03:26:53.895Z,22.24
2022-12-15T03:27:55.997Z,22.25
2022-12-15T03:28:57.682Z,22.25
2022-12-15T03:29:59.312Z,22.27
2022-12-15T03:31:00.995Z,22.26
2022-12-15T03:32:02.707Z,22.25
2022-12-15T03:33:04.530Z,22.27
2022-12-15T03:34:06.114Z,22.28
2022-12-15T03:35:08.226Z,22.28
2022-12-15T03:36:09.933Z,22.26
2022-12-15T03:37:11.803Z,22.25
2022-12-15T03:38:13.403Z,22.27
2022-12-15T03:39:15.031Z,22.26
2022-12-15T03:40:16.889Z,22.28
2022-12-15T03:41:19.364Z,22.28
2022-12-15T03:42:40.901Z,22.29
2022-12-15T03:43:42.518Z,22.30
2022-12-15T03:44:44.046Z,22.27
2022-12-15T03:45:45.719Z,22.28
2022-12-15T03:46:47.501Z,22.29
2022-12-15T03:47:49.807Z,22.29
2022-12-15T03:48:51.378Z,22.28
2022-12-15T03:49:52.993Z,22.30
2022-12-15T03:50:55.267Z,22.32
2022-12-15T03:51:56.876Z,22.29
2022-12-15T03:53:01.212Z,22.30
2022-12-15T03:54:02.903Z,22.31
2022-12-15T03:55:05.309Z,22.31
2022-12-15T03:56:07.326Z,22.31
2022-12-15T03:57:08.850Z,22.32
2022-12-15T03:58:10.389Z,22.33
2022-12-15T03:59:11.998Z,22.34
2022-12-15T04:00:18.587Z,22.34
2022-12-15T04:01:28.133Z,22.35
2022-12-15T04:02:29.952Z,22.36
2022-12-15T04:03:31.946Z,22.37
2022-12-15T04:04:33.864Z,22.35
2022-12-15T04:05:35.764Z,22.34
2022-12-15T04:06:37.344Z,22.33
2022-12-15T04:07:38.917Z,22.33
2022-12-15T04:08:40.498Z,22.35
2022-12-15T04:09:42.157Z,22.38
2022-12-15T04:10:43.704Z,22.37
2022-12-15T04:11:45.326Z,22.37
2022-12-15T04:12:47.058Z,22.38
2022-12-15T04:13:48.714Z,22.38
2022-12-15T04:14:50.285Z,22.40
2022-12-15T04:15:51.831Z,22.37
2022-12-15T04:16:53.424Z,22.39
2022-12-15T04:17:55.344Z,22.39
2022-12-15T04:19:15.276Z,22.38
2022-12-15T04:20:16.949Z,22.38
2022-12-15T04:21:18.516Z,22.38
2022-12-15T04:22:20.097Z,22.40
2022-12-15T04:23:22.411Z,22.40
2022-12-15T04:24:42.369Z,22.42
2022-12-15T04:26:02.326Z,22.38
2022-12-15T04:27:22.738Z,22.39
2022-12-15T04:28:43.213Z,22.38
2022-12-15T04:30:03.074Z,22.39
2022-12-15T04:31:32.166Z,22.37
2022-12-15T04:32:52.434Z,22.36
2022-12-15T04:34:17.238Z,22.36
2022-12-15T04:35:37.466Z,22.39
2022-12-15T04:37:00.344Z,22.37
2022-12-15T04:38:20.756Z,22.39
2022-12-15T04:39:41.568Z,22.39
2022-12-15T04:41:01.813Z,22.36
2022-12-15T04:42:22.021Z,22.37
2022-12-15T04:43:43.286Z,22.39
2022-12-15T04:45:04.142Z,22.37
2022-12-15T04:46:24.569Z,22.38
2022-12-15T04:47:44.739Z,22.37
2022-12-15T04:49:04.532Z,22.34
2022-12-15T04:50:25.032Z,22.35
2022-12-15T04:51:45.251Z,22.34
2022-12-15T04:53:05.064Z,22.32
2022-12-15T04:54:25.346Z,22.34
2022-12-15T04:55:45.178Z,22.34
2022-12-15T04:57:05.724Z,22.34
2022-12-15T04:58:27.711Z,22.36
2022-12-15T04:59:47.465Z,22.39
2022-12-15T05:01:07.821Z,22.36
2022-12-15T05:02:28.174Z,22.34
2022-12-15T05:03:48.221Z,22.33
2022-12-15T05:05:08.178Z,22.35
2022-12-15T05:06:28.640Z,22.35
2022-12-15T05:07:49.027Z,22.33
2022-12-15T05:09:08.809Z,22.33
2022-12-15T05:10:29.109Z,22.34
2022-12-15T05:11:48.938Z,22.35
2022-12-15T05:13:09.216Z,22.35
2022-12-15T05:14:29.543Z,22.32
2022-12-15T05:15:51.740Z,22.33
2022-12-15T05:17:11.941Z,22.34
2022-12-15T05:18:32.193Z,22.36
2022-12-15T05:19:52.536Z,22.35
2022-12-15T05:21:12.563Z,22.37
2022-12-15T05:22:32.887Z,22.34
2022-12-15T05:23:53.378Z,22.32
2022-12-15T05:25:13.366Z,22.32
2022-12-15T05:26:33.326Z,22.32
2022-12-15T05:27:53.681Z,22.31
2022-12-15T05:29:13.967Z,22.34
2022-12-15T05:30:33.716Z,22.32
2022-12-15T05:31:55.126Z,22.31
2022-12-15T05:32:56.675Z,22.30
2022-12-15T05:34:04.736Z,22.32
2022-12-15T05:35:07.550Z,22.33
2022-12-15T05:36:09.365Z,22.32
2022-12-15T05:37:10.919Z,22.33
2022-12-15T05:38:14.741Z,22.34
2022-12-15T05:39:16.650Z,22.34
2022-12-15T05:40:18.233Z,22.33
2022-12-15T05:41:21.211Z,22.35
2022-12-15T05:42:22.843Z,22.33
2022-12-15T05:43:26.496Z,22.35
2022-12-15T05:44:28.714Z,22.36
2022-12-15T05:45:30.378Z,22.36
2022-12-15T05:46:32.007Z,22.36
2022-12-15T05:47:33.676Z,22.35
2022-12-15T05:48:35.380Z,22.35
2022-12-15T05:49:36.997Z,22.35
2022-12-15T05:50:38.604Z,22.35
2022-12-15T05:51:41.621Z,22.31
2022-12-15T05:52:49.044Z,22.33
2022-12-15T05:53:51.003Z,22.34
2022-12-15T05:54:52.632Z,22.35
2022-12-15T05:56:01.388Z,22.34
2022-12-15T05:57:03.030Z,22.37
2022-12-15T05:58:04.692Z,22.36
2022-12-15T05:59:06.440Z,22.35
2022-12-15T06:00:08.989Z,22.35
2022-12-15T06:01:16.607Z,22.35
2022-12-15T06:02:18.332Z,22.36
2022-12-15T06:03:20.281Z,22.38
2022-12-15T06:04:21.968Z,22.38
2022-12-15T06:05:23.647Z,22.36
2022-12-15T06:06:26.091Z,22.37
2022-12-15T06:07:27.679Z,22.38
2022-12-15T06:08:31.215Z,22.36
2022-12-15T06:09:33.105Z,22.37
2022-12-15T06:10:34.666Z,22.38
2022-12-15T06:11:37.487Z,22.37
2022-12-15T06:12:39.290Z,22.37
2022-12-15T06:13:41.808Z,22.36
2022-12-15T06:14:43.331Z,22.36
2022-12-15T06:15:54.991Z,22.38
2022-12-15T06:16:56.801Z,22.39
2022-12-15T06:17:58.484Z,22.37
2022-12-15T06:19:02.093Z,22.36
2022-12-15T06:20:04.262Z,22.36
2022-12-15T06:21:12.278Z,22.37
2022-12-15T06:22:13.907Z,22.38
2022-12-15T06:23:15.498Z,22.39
2022-12-15T06:24:17.069Z,22.39
2022-12-15T06:25:18.614Z,22.40
2022-12-15T06:26:35.099Z,22.35
2022-12-15T06:27:37.831Z,22.39
2022-12-15T06:28:39.776Z,22.39
2022-12-15T06:29:41.409Z,22.39
2022-12-15T06:30:42.991Z,22.40
2022-12-15T06:31:44.783Z,22.39
2022-12-15T06:32:46.374Z,22.40
2022-12-15T06:33:59.190Z,22.39
2022-12-15T06:35:02.784Z,22.41
2022-12-15T06:36:07.144Z,22.40
2022-12-15T06:37:08.725Z,22.40
2022-12-15T06:38:10.322Z,22.41
2022-12-15T06:39:14.168Z,22.43
2022-12-15T06:40:15.719Z,22.41
2022-12-15T06:41:20.369Z,22.39
2022-12-15T06:42:22.072Z,22.40
2022-12-15T06:43:23.684Z,22.40
2022-12-15T06:44:25.269Z,22.43
2022-12-15T06:45:26.925Z,22.43
2022-12-15T06:46:30.212Z,22.44
2022-12-15T06:47:31.856Z,22.44
2022-12-15T06:48:33.475Z,22.47
2022-12-15T06:49:35.029Z,22.46
2022-12-15T06:50:36.659Z,22.46
2022-12-15T06:51:38.276Z,22.46
2022-12-15T06:52:39.882Z,22.49
2022-12-15T06:53:42.853Z,22.48
2022-12-15T06:54:44.499Z,22.51
2022-12-15T06:55:46.836Z,22.51
2022-12-15T06:56:50.080Z,22.53
2022-12-15T06:57:51.731Z,22.51
2022-12-15T06:58:54.114Z,22.52
2022-12-15T06:59:55.640Z,22.51
2022-12-15T07:00:57.710Z,22.52
2022-12-15T07:02:00.612Z,22.56
2022-12-15T07:03:04.313Z,22.56
2022-12-15T07:04:06.428Z,22.58
2022-12-15T07:05:09.278Z,22.61
2022-12-15T07:06:13.190Z,22.60
2022-12-15T07:07:14.776Z,22.60
2022-12-15T07:08:16.699Z,22.63
2022-12-15T07:09:18.435Z,22.62
2022-12-15T07:10:22.514Z,22.63
2022-12-15T07:11:24.365Z,22.64
2022-12-15T07:12:25.947Z,22.62
2022-12-15T07:13:27.716Z,22.62
2022-12-15T07:14:29.503Z,22.64
2022-12-15T07:15:32.039Z,22.65
2022-12-15T07:16:33.701Z,22.66
2022-12-15T07:17:37.109Z,22.69
2022-12-15T07:18:40.029Z,22.69
2022-12-15T07:19:41.568Z,22.70
2022-12-15T07:20:44.503Z,22.72
2022-12-15T07:21:51.430Z,22.69
2022-12-15T07:22:52.990Z,22.74
2022-12-15T07:23:56.303Z,22.74
2022-12-15T07:24:58.457Z,22.74
2022-12-15T07:26:11.518Z,22.71
2022-12-15T07:27:14.402Z,22.74
2022-12-15T07:28:17.287Z,22.75
2022-12-15T07:29:23.478Z,22.76
2022-12-15T07:30:25.478Z,22.76
2022-12-15T07:31:27.321Z,22.79
2022-12-15T07:32:28.940Z,22.79
2022-12-15T07:33:33.258Z,22.79
2022-12-15T07:34:35.193Z,22.77
2022-12-15T07:35:36.755Z,22.79
2022-12-15T07:36:38.820Z,22.79
2022-12-15T07:37:40.414Z,22.78
2022-12-15T07:38:42.031Z,22.79
2022-12-15T07:39:43.629Z,22.78
2022-12-15T07:40:45.723Z,22.78
2022-12-15T07:41:47.286Z,22.77
2022-12-15T07:42:48.820Z,22.79
2022-12-15T07:43:50.372Z,22.81
2022-12-15T07:44:51.947Z,22.80
2022-12-15T07:45:53.712Z,22.83
2022-12-15T07:46:55.762Z,22.81
2022-12-15T07:47:57.356Z,22.82
2022-12-15T07:48:59.037Z,22.83
2022-12-15T07:50:00.622Z,22.82
2022-12-15T07:51:15.172Z,22.82
2022-12-15T07:52:20.768Z,22.88
2022-12-15T07:53:22.335Z,22.87
2022-12-15T07:54:24.412Z,22.88
2022-12-15T07:55:43.619Z,22.88
2022-12-15T07:56:50.531Z,22.92
2022-12-15T07:57:52.342Z,22.91
2022-12-15T07:58:54.156Z,22.92
2022-12-15T07:59:55.768Z,22.91
2022-12-15T08:01:02.451Z,22.91
2022-12-15T08:02:04.717Z,22.94
2022-12-15T08:03:06.588Z,22.95
2022-12-15T08:04:08.321Z,22.97
2022-12-15T08:05:10.615Z,22.95
2022-12-15T08:06:13.762Z,22.94
2022-12-15T08:07:15.371Z,22.93
2022-12-15T08:08:18.452Z,22.93
2022-12-15T08:09:20.321Z,22.94
2022-12-15T08:10:21.939Z,22.95
2022-12-15T08:11:24.975Z,22.95
2022-12-15T08:12:29.447Z,22.94
2022-12-15T08:14:01.274Z,22.97
2022-12-15T08:14:52.551Z,22.98
2022-12-15T08:15:55.103Z,22.99
2022-12-15T08:16:56.817Z,23.00
2022-12-15T08:17:58.448Z,22.97
2022-12-15T08:19:00.152Z,22.99
2022-12-15T08:20:07.944Z,22.98
2022-12-15T08:21:11.795Z,22.99
2022-12-15T08:22:15.142Z,22.97
2022-12-15T08:23:16.773Z,22.97
2022-12-15T08:24:19.679Z,23.00
2022-12-15T08:25:21.282Z,23.02
2022-12-15T08:26:29.802Z,23.02
2022-12-15T08:27:32.204Z,23.02
2022-12-15T08:28:38.703Z,23.01
2022-12-15T08:29:56.607Z,23.04
2022-12-15T08:31:14.745Z,23.05
2022-12-15T08:32:17.262Z,23.09
2022-12-15T08:33:18.844Z,23.09
2022-12-15T08:34:21.221Z,23.09
2022-12-15T08:35:54.644Z,23.11
2022-12-15T08:36:44.391Z,23.11
2022-12-15T08:37:45.955Z,23.12
2022-12-15T08:38:48.372Z,23.09
2022-12-15T08:39:49.946Z,23.10
2022-12-15T08:40:51.489Z,23.10
2022-12-15T08:41:53.034Z,23.09
2022-12-15T08:42:54.584Z,23.09
2022-12-15T08:43:57.363Z,23.10
2022-12-15T08:44:58.959Z,23.12
2022-12-15T08:46:00.963Z,23.15
2022-12-15T08:47:02.644Z,23.16
2022-12-15T08:48:04.221Z,23.14
2022-12-15T08:49:05.851Z,23.11
2022-12-15T08:50:08.326Z,23.08
2022-12-15T08:51:10.371Z,23.07
2022-12-15T08:52:12.586Z,23.10
2022-12-15T08:53:30.932Z,23.15
2022-12-15T08:54:33.206Z,23.14
2022-12-15T08:55:34.797Z,23.14
2022-12-15T08:56:36.460Z,23.13
2022-12-15T08:57:39.019Z,23.11
2022-12-15T08:58:40.835Z,23.11
2022-12-15T08:59:42.451Z,23.14
2022-12-15T09:00:44.056Z,23.11
2022-12-15T09:01:45.852Z,23.10
2022-12-15T09:02:47.588Z,23.11
2022-12-15T09:03:49.950Z,23.11
2022-12-15T09:04:51.685Z,23.11
2022-12-15T09:05:53.967Z,23.07
2022-12-15T09:06:55.661Z,23.03
2022-12-15T09:08:04.660Z,22.99
2022-12-15T09:09:11.565Z,22.96
2022-12-15T09:10:13.217Z,22.94
2022-12-15T09:11:15.197Z,22.91
2022-12-15T09:12:16.741Z,22.89
2022-12-15T09:13:18.329Z,22.87
2022-12-15T09:14:25.708Z,22.83
2022-12-15T09:16:00.211Z,22.80
2022-12-15T09:16:52.317Z,22.81
2022-12-15T09:17:53.974Z,22.80
2022-12-15T09:18:58.184Z,22.79
2022-12-15T09:19:59.779Z,22.78
2022-12-15T09:21:05.351Z,22.75
2022-12-15T09:22:07.917Z,22.77
2022-12-15T09:23:09.551Z,22.77
2022-12-15T09:24:17.821Z,22.75
2022-12-15T09:25:23.908Z,22.75
2022-12-15T09:26:25.679Z,22.75
2022-12-15T09:27:27.221Z,22.76
2022-12-15T09:28:29.853Z,22.75
2022-12-15T09:29:31.809Z,22.73
2022-12-15T09:30:33.424Z,22.73
2022-12-15T09:31:37.721Z,22.69
2022-12-15T09:32:39.344Z,22.69
2022-12-15T09:33:42.121Z,22.70
2022-12-15T09:34:43.967Z,22.69
2022-12-15T09:35:52.412Z,22.67
2022-12-15T09:36:54.035Z,22.71
2022-12-15T09:37:57.255Z,22.70
2022-12-15T09:38:59.626Z,22.70
2022-12-15T09:40:01.171Z,22.73
2022-12-15T09:41:38.458Z,22.66
2022-12-15T09:42:40.147Z,22.73
2022-12-15T09:44:03.010Z,22.67
2022-12-15T09:45:15.887Z,22.70
2022-12-15T09:46:27.321Z,22.75
2022-12-15T09:47:50.244Z,22.75
2022-12-15T09:48:54.042Z,22.77
2022-12-15T09:49:58.605Z,22.75
2022-12-15T09:51:04.377Z,22.75
2022-12-15T09:52:12.189Z,22.77
2022-12-15T09:53:45.682Z,22.75
2022-12-15T09:54:41.950Z,22.77
2022-12-15T09:55:48.812Z,22.77
2022-12-15T09:56:57.045Z,22.76
2022-12-15T09:58:06.044Z,22.79
2022-12-15T09:59:16.540Z,22.79
2022-12-15T10:00:22.323Z,22.80
2022-12-15T10:01:46.443Z,22.75
2022-12-15T10:02:52.634Z,22.79
2022-12-15T10:04:31.782Z,22.75
2022-12-15T10:06:15.558Z,22.79
2022-12-15T10:07:29.833Z,22.79
2022-12-15T10:08:35.216Z,22.78
2022-12-15T10:09:37.360Z,22.81
2022-12-15T10:10:56.177Z,22.76
2022-12-15T10:12:03.042Z,22.79
2022-12-15T10:13:15.119Z,22.77
2022-12-15T10:14:29.668Z,22.78
2022-12-15T10:15:41.657Z,22.76
2022-12-15T10:17:01.421Z,22.75
2022-12-15T10:18:11.466Z,22.76
2022-12-15T10:19:16.250Z,22.75
2022-12-15T10:20:20.917Z,22.77
2022-12-15T10:21:27.423Z,22.75
2022-12-15T10:22:33.897Z,22.75
2022-12-15T10:23:36.940Z,22.75
2022-12-15T10:26:20.870Z,22.74
2022-12-15T10:27:31.433Z,22.78
2022-12-15T10:28:38.998Z,22.77
2022-12-15T10:29:56.857Z,22.73
2022-12-15T10:31:00.254Z,22.75
2022-12-15T10:32:16.420Z,22.71
2022-12-15T10:33:24.199Z,22.76
2022-12-15T10:34:44.081Z,22.69
2022-12-15T10:35:46.648Z,22.77
2022-12-15T10:36:52.335Z,22.76
2022-12-15T10:37:59.769Z,22.75
2022-12-15T10:39:01.295Z,22.76
2022-12-15T10:40:03.041Z,22.76
2022-12-15T10:41:08.091Z,22.76
2022-12-15T10:42:14.219Z,22.73
2022-12-15T10:43:37.304Z,22.73
2022-12-15T10:44:42.535Z,22.76
2022-12-15T10:45:44.280Z,22.76
2022-12-15T10:46:46.400Z,22.78
2022-12-15T10:47:59.106Z,22.74
2022-12-15T10:49:22.200Z,22.73
2022-12-15T10:50:25.639Z,22.76
2022-12-15T10:51:42.599Z,22.75
2022-12-15T10:52:44.212Z,22.78
2022-12-15T10:53:54.713Z,22.78
2022-12-15T10:54:56.425Z,22.78
2022-12-15T10:56:01.552Z,22.76
2022-12-15T10:57:27.874Z,22.73
2022-12-15T10:58:29.467Z,22.79
2022-12-15T10:59:33.558Z,22.78
2022-12-15T11:00:35.513Z,22.79
2022-12-15T11:01:37.440Z,22.78
2022-12-15T11:02:39.286Z,22.78
2022-12-15T11:03:41.755Z,22.79
2022-12-15T11:04:58.364Z,22.76
2022-12-15T11:05:59.951Z,22.81
2022-12-15T11:07:04.005Z,22.80
2022-12-15T11:08:17.121Z,22.76
2022-12-15T11:09:28.868Z,22.77
2022-12-15T11:10:51.717Z,22.80
2022-12-15T11:12:12.245Z,22.82
2022-12-15T11:13:15.560Z,22.82
2022-12-15T11:14:24.284Z,22.81
2022-12-15T11:15:37.978Z,22.81
2022-12-15T11:16:49.278Z,22.79
2022-12-15T11:18:24.336Z,22.77
2022-12-15T11:20:02.643Z,22.77
2022-12-15T11:21:12.168Z,22.83
2022-12-15T11:22:31.690Z,22.80
2022-12-15T11:23:40.170Z,22.81
2022-12-15T11:24:48.867Z,22.84
2022-12-15T11:26:21.494Z,22.76
2022-12-15T11:27:35.961Z,22.77
2022-12-15T11:29:10.802Z,22.77
2022-12-15T11:30:18.222Z,22.80
2022-12-15T11:31:44.321Z,22.75
2022-12-15T11:32:51.616Z,22.82
2022-12-15T11:33:54.698Z,22.81
2022-12-15T11:34:56.763Z,22.81
2022-12-15T11:36:19.843Z,22.77
2022-12-15T11:37:40.158Z,22.77
2022-12-15T11:38:49.963Z,22.78
2022-12-15T11:40:20.155Z,22.77
2022-12-15T11:41:39.701Z,22.76
2022-12-15T11:42:53.588Z,22.78
2022-12-15T11:44:39.432Z,22.78
2022-12-15T11:45:54.466Z,22.80
2022-12-15T11:47:09.997Z,22.84
2022-12-15T11:48:19.672Z,22.84
2022-12-15T11:49:58.671Z,22.83
2022-12-15T11:51:06.419Z,22.87
2022-12-15T11:52:44.751Z,22.86
2022-12-15T11:53:58.129Z,22.90
2022-12-15T11:55:07.714Z,22.94
2022-12-15T11:56:23.981Z,22.95
2022-12-15T11:57:50.489Z,22.94
2022-12-15T11:59:29.499Z,22.96
2022-12-15T12:00:39.346Z,23.00
2022-12-15T12:01:51.624Z,23.01
2022-12-15T12:03:25.770Z,22.98
2022-12-15T12:04:50.915Z,23.00
2022-12-15T12:06:00.757Z,23.04
2022-12-15T12:07:02.299Z,23.06
2022-12-15T12:08:31.708Z,23.00
2022-12-15T12:09:37.393Z,23.04
2022-12-15T12:10:59.357Z,23.04
2022-12-15T12:12:18.831Z,23.06
2022-12-15T12:13:34.695Z,23.06
2022-12-15T12:14:50.472Z,23.07
2022-12-15T12:16:13.459Z,23.07
2022-12-15T12:17:23.542Z,23.07
2022-12-15T12:18:36.962Z,23.05
2022-12-15T12:19:45.848Z,23.06
2022-12-15T12:21:00.164Z,23.06
2022-12-15T12:22:12.520Z,23.06
2022-12-15T12:23:14.122Z,23.09
2022-12-15T12:24:39.838Z,23.09
2022-12-15T12:26:21.977Z,23.05
2022-12-15T12:27:39.457Z,23.07
2022-12-15T12:28:52.588Z,23.09
2022-12-15T12:30:02.566Z,23.06
2022-12-15T12:31:06.271Z,23.11
2022-12-15T12:32:40.141Z,23.06
2022-12-15T12:33:48.686Z,23.09
2022-12-15T12:35:31.249Z,23.09
2022-12-15T12:36:28.778Z,23.15
2022-12-15T12:37:43.054Z,23.09
2022-12-15T12:38:52.633Z,23.11
2022-12-15T12:39:58.440Z,23.13
2022-12-15T12:41:09.374Z,23.10
2022-12-15T12:43:05.272Z,23.08
2022-12-15T12:44:33.662Z,23.07
2022-12-15T12:45:41.052Z,23.11
2022-12-15T12:46:55.720Z,23.07
2022-12-15T12:48:06.954Z,23.08
2022-12-15T12:49:22.809Z,23.07
2022-12-15T12:50:30.168Z,23.11
2022-12-15T12:51:34.458Z,23.09
2022-12-15T12:52:38.029Z,23.09
2022-12-15T12:53:39.737Z,23.09
2022-12-15T12:54:47.080Z,23.09
2022-12-15T12:55:50.397Z,23.11
2022-12-15T12:56:52.015Z,23.10
2022-12-15T12:57:54.949Z,23.09
2022-12-15T12:58:56.726Z,23.09
2022-12-15T13:00:04.612Z,23.06
2022-12-15T13:01:17.516Z,23.10
2022-12-15T13:02:22.309Z,23.08
2022-12-15T13:03:24.144Z,23.11
2022-12-15T13:04:28.445Z,23.09
2022-12-15T13:05:35.605Z,23.10
2022-12-15T13:06:40.241Z,23.08
2022-12-15T13:07:41.785Z,23.09
2022-12-15T13:08:53.221Z,23.07
2022-12-15T13:10:09.922Z,23.07
2022-12-15T13:11:48.961Z,23.06
2022-12-15T13:12:55.825Z,23.09
2022-12-15T13:13:57.584Z,23.08
2022-12-15T13:15:06.327Z,23.06
2022-12-15T13:16:19.830Z,23.07
2022-12-15T13:17:38.987Z,23.09
2022-12-15T13:19:08.490Z,23.04
2022-12-15T13:20:26.128Z,23.06
2022-12-15T13:21:45.770Z,23.05
2022-12-15T13:22:51.101Z,23.10
2022-12-15T13:23:59.232Z,23.09
2022-12-15T13:25:01.575Z,23.09
2022-12-15T13:26:03.377Z,23.09
2022-12-15T13:27:11.399Z,23.06
2022-12-15T13:28:40.462Z,23.03
2022-12-15T13:30:14.732Z,23.04
2022-12-15T13:31:16.706Z,23.09
2022-12-15T13:32:29.645Z,23.04
2022-12-15T13:33:31.747Z,23.07
2022-12-15T13:34:40.987Z,23.04
2022-12-15T13:35:43.309Z,23.08
2022-12-15T13:38:19.309Z,23.06
2022-12-15T13:39:20.849Z,23.07
2022-12-15T13:40:35.761Z,23.06
2022-12-15T13:41:37.519Z,23.08
2022-12-15T13:42:53.038Z,23.06
2022-12-15T13:44:00.693Z,23.07
2022-12-15T13:45:16.003Z,23.03
2022-12-15T13:46:24.502Z,23.04
2022-12-15T13:47:30.285Z,23.09
2022-12-15T13:48:42.693Z,23.08
2022-12-15T13:50:12.381Z,23.04
2022-12-15T13:51:22.786Z,23.06
2022-12-15T13:52:44.263Z,23.10
2022-12-15T13:54:15.529Z,23.05
2022-12-15T13:55:28.208Z,23.07
2022-12-15T13:56:46.275Z,23.06
2022-12-15T13:57:56.892Z,23.05
2022-12-15T13:59:05.877Z,23.05
2022-12-15T14:00:21.392Z,23.01
2022-12-15T14:01:32.052Z,23.01
2022-12-15T14:02:36.827Z,23.03
2022-12-15T14:03:38.748Z,23.05
2022-12-15T14:04:40.627Z,23.04
2022-12-15T14:05:49.995Z,23.00
2022-12-15T14:07:00.142Z,23.02
2022-12-15T14:08:03.551Z,23.05
2022-12-15T14:09:07.217Z,23.02
2022-12-15T14:10:19.378Z,23.01
2022-12-15T14:11:51.197Z,23.03
2022-12-15T14:12:48.431Z,23.05
2022-12-15T14:13:54.298Z,23.06
2022-12-15T14:14:56.345Z,23.03
2022-12-15T14:16:07.305Z,23.02
2022-12-15T14:17:13.680Z,23.01
2022-12-15T14:18:24.144Z,22.97
2022-12-15T14:19:26.019Z,23.00
2022-12-15T14:20:32.142Z,22.98
2022-12-15T14:21:34.651Z,22.99
2022-12-15T14:22:36.232Z,23.01
2022-12-15T14:24:11.388Z,22.98
2022-12-15T14:25:33.875Z,22.96
2022-12-15T14:26:35.446Z,23.01
2022-12-15T14:27:37.033Z,23.02
2022-12-15T14:28:43.704Z,23.01
2022-12-15T14:29:45.293Z,22.99
2022-12-15T14:30:48.647Z,22.97
2022-12-15T14:31:56.072Z,22.96
2022-12-15T14:33:09.097Z,22.95
2022-12-15T14:34:21.365Z,22.97
2022-12-15T14:35:29.408Z,22.96
2022-12-15T14:36:32.535Z,22.96
2022-12-15T14:37:34.236Z,22.96
2022-12-15T14:38:54.117Z,22.91
2022-12-15T14:39:56.052Z,22.96
2022-12-15T14:41:02.106Z,22.94
2022-12-15T14:42:06.265Z,22.95
2022-12-15T14:43:18.306Z,22.92
2022-12-15T14:44:31.248Z,22.93
2022-12-15T14:45:40.579Z,22.95
2022-12-15T14:46:49.325Z,22.92
2022-12-15T14:48:30.458Z,22.92
2022-12-15T14:49:26.783Z,22.92
2022-12-15T14:50:28.383Z,22.95
2022-12-15T14:51:32.497Z,22.94
2022-12-15T14:52:37.049Z,22.90
2022-12-15T14:53:41.024Z,22.90
2022-12-15T14:54:57.943Z,22.85
2022-12-15T14:56:33.438Z,22.83
2022-12-15T14:57:45.344Z,22.87